Station: Portable Rfsnsw60  

  Atmospheric Gas Attenuation - ITU Rec 676-11   ----------------- dB/100km -----------------
Date Time Temp RH % AH g/m3 Dew Point Wind Direction Speed kph Gust kph Barometer mB Rainfall Since 9am 24GHz 47GHz 76GHz 122GHz 134GHz 241GHz
08/05 12:20 10.6 92 8.98 9.4 7 7 1013.1 0.6 20.6 27.5 43.0 113.1 107.8 371.1
08/05 12:10 10.5 93 9.02 9.4 7 9 1013.1 0.6 20.7 27.6 43.3 113.7 108.5 373.5
08/05 12:00 10.3 93 8.91 9.2 9 9 1013.1 0.6 20.4 27.5 42.9 112.7 107.3 369.1
08/05 11:50 10.2 93 8.85 9.2 7 11 1013.1 0.6 20.3 27.4 42.7 112.2 106.6 366.6
08/05 11:40 10.1 93 8.8 9 9 11 1013.1 0.4 20.2 27.3 42.5 111.8 106.0 364.6
08/05 11:30 10 93 8.74 8.9 9 11 1013.1 0.4 20.1 27.3 42.3 111.2 105.3 362.2
08/05 11:20 9.9 93 8.69 8.8 9 11 1013.1 0.4 20.0 27.2 42.2 110.8 104.8 360.2
08/05 11:10 9.7 93 8.58 8.6 9 13 1013.1 0.4 19.7 27.1 41.8 109.8 103.5 355.7
08/05 11:00 9.6 93 8.52 8.6 7 9 1013.1 0.4 19.6 27.0 41.6 109.3 102.8 353.3
08/05 10:50 9.4 93 8.41 8.4 7 11 1013.1 0.4 19.4 26.9 41.3 108.3 101.5 348.8
08/05 10:40 9.3 94 8.45 8.4 9 11 1013.1 0.4 19.5 27.0 41.5 108.9 102.2 351.2
08/05 10:30 9.2 93 8.31 8.2 7 9 1013.1 0.4 19.2 26.8 40.9 107.5 100.4 344.8
08/05 10:20 9 93 8.2 8 6 7 1013.1 0.4 19.0 26.6 40.6 106.5 99.1 340.3
08/05 10:10 8.9 94 8.24 8 6 7 1013.1 0.2 19.1 26.7 40.8 107.1 99.8 342.7
08/05 10:00 8.8 93 8.1 7.8 6 7 1013.1 0.2 18.8 26.5 40.3 105.7 98.0 336.4
08/05 09:50 8.7 93 8.05 7.7 4 6 1013.1 0.2 18.7 26.5 40.1 105.2 97.4 334.4
08/05 09:40 8.6 92 7.91 7.4 7 9 1013.1 0 18.4 26.3 39.6 103.8 95.6 328.0
08/05 09:30 8.5 92 7.86 7.3 4 7 1013.1 0 18.3 26.2 39.4 103.4 95.0 326.0
08/05 09:20 8.5 91 7.77 7.2 6 6 1013.1 0 18.1 26.1 39.0 102.4 93.8 321.6
08/05 09:10 8.3 91 7.67 7 6 7 1013.1 0 17.8 26.0 38.7 101.5 92.7 317.6
08/05 09:00 8.3 91 7.67 7 9 9 1013.1 0.2 17.8 26.0 38.7 101.5 92.7 317.6
08/05 08:50 8.1 92 7.66 6.9 7 9 1013.1 0.2 17.8 26.0 38.8 101.6 92.8 318.0
08/05 08:40 8 93 7.69 6.9 7 9 1013.1 0.2 17.9 26.1 38.9 102.1 93.3 319.8
08/05 08:30 7.9 93 7.64 6.8 7 7 1013.1 0.2 17.8 26.0 38.8 101.7 92.7 317.8
08/05 08:20 7.8 93 7.59 6.7 7 9 1013.1 0.2 17.7 26.0 38.6 101.3 92.2 315.8
08/05 08:10 7.7 93 7.54 6.7 7 7 1013.1 0.2 17.6 25.9 38.5 100.8 91.6 313.8
08/05 07:50 7.5 94 7.53 6.6 9 9 1013.1 0.2 17.6 26.0 38.5 101.0 91.7 314.1
08/05 07:40 7.5 95 7.61 6.7 9 11 1013.1 0.2 17.8 26.1 38.9 101.9 92.8 318.0
08/05 07:30 7.5 95 7.61 6.8 7 9 1013.1 0.2 17.8 26.1 38.9 101.9 92.8 318.0
08/05 07:20 7.5 95 7.61 6.7 7 9 1013.1 0.2 17.8 26.1 38.9 101.9 92.8 318.0
08/05 07:10 7.5 95 7.61 6.7 7 9 1013.1 0.2 17.8 26.1 38.9 101.9 92.8 318.0
08/05 07:00 7.4 95 7.56 6.7 7 9 1013.1 0 17.7 26.0 38.7 101.4 92.2 316.0
08/05 06:50 7.4 95 7.56 6.6 6 7 1013.1 0 17.7 26.0 38.7 101.4 92.2 316.0
08/05 06:40 7.4 94 7.48 6.5 7 9 1013.1 0 17.5 25.9 38.4 100.5 91.1 312.1
08/05 06:30 7.5 93 7.45 6.4 9 11 1013.1 0 17.4 25.8 38.2 100.1 90.6 310.3
08/05 06:20 7.6 91 7.33 6.3 9 11 1013.1 0 17.1 25.6 37.6 98.6 88.8 304.1
08/05 06:10 7.8 90 7.35 6.3 7 9 1013.1 0 17.2 25.6 37.6 98.6 88.9 304.3
08/05 06:00 7.8 90 7.35 6.2 4 7 1013.1 0 17.2 25.6 37.6 98.6 88.9 304.3
08/05 05:50 7.8 88 7.18 6 4 6 1013.1 0 16.8 25.3 36.9 96.7 86.5 296.1
08/05 05:40 7.7 89 7.22 6 2 4 1013.1 0 16.9 25.4 37.1 97.3 87.2 298.4
08/05 05:30 7.7 90 7.3 6.1 2 4 1013.1 0 17.1 25.5 37.5 98.2 88.3 302.3
08/05 05:20 7.7 90 7.3 6.2 4 6 1013.1 0 17.1 25.5 37.5 98.2 88.3 302.3
08/05 05:10 7.8 88 7.18 6 2 4 1013.1 0 16.8 25.3 36.9 96.7 86.5 296.1
08/05 05:00 7.9 87 7.15 5.9 0 2 1013.1 0 16.7 25.2 36.7 96.2 86.0 294.3
08/05 04:50 7.9 86 7.07 5.7 0 4 1013.1 0 16.6 25.1 36.4 95.4 84.9 290.5
08/05 04:40 7.9 85 6.98 5.6 2 4 1013.1 0 16.4 24.9 36.0 94.4 83.7 286.3
08/05 04:30 7.8 86 7.02 5.6 2 4 1013.1 0 16.5 25.0 36.3 94.9 84.4 288.6
08/05 04:20 7.9 85 6.98 5.5 6 7 1013.1 0 16.4 24.9 36.0 94.4 83.7 286.3
08/05 04:10 7.9 85 6.98 5.6 7 9 1013.1 0 16.4 24.9 36.0 94.4 83.7 286.3
08/05 04:00 7.9 85 6.98 5.5 6 7 1013.1 0 16.4 24.9 36.0 94.4 83.7 286.3
08/05 03:50 8 84 6.95 5.5 6 7 1013.1 0 16.3 24.9 35.9 93.9 83.2 284.5
08/05 03:40 8.1 84 6.99 5.6 6 7 1013.1 0 16.4 24.9 36.0 94.3 83.6 286.0
08/05 03:30 8.3 81 6.83 5.3 6 9 1013.1 0 16.0 24.6 35.3 92.3 81.3 277.8
08/05 03:20 8.4 80 6.79 5.1 7 9 1013.1 0 15.9 24.5 35.1 91.7 80.7 275.6
08/05 03:10 8.5 77 6.58 4.8 6 7 1013.1 0 15.5 24.1 34.2 89.4 77.8 265.5
08/05 03:00 8.5 77 6.58 4.7 9 11 1013.1 0 15.5 24.1 34.2 89.4 77.8 265.5
08/05 02:50 8.5 75 6.41 4.4 7 9 1013.1 0 15.1 23.8 33.5 87.6 75.6 257.7
08/05 02:40 8.6 75 6.45 4.5 7 9 1013.1 0 15.2 23.9 33.6 87.9 76.0 259.2
08/05 02:30 8.6 75 6.45 4.4 6 9 1013.1 0 15.2 23.9 33.6 87.9 76.0 259.2
08/05 02:20 8.6 74 6.36 4.2 7 9 1013.1 0 15.0 23.7 33.3 86.9 74.8 255.1
08/05 02:10 8.5 75 6.41 4.3 7 7 1013.1 0 15.1 23.8 33.5 87.6 75.6 257.7
08/05 02:00 8.6 75 6.45 4.5 7 9 1013.1 0 15.2 23.9 33.6 87.9 76.0 259.2
08/05 01:50 8.6 74 6.36 4.3 6 7 1013.1 0 15.0 23.7 33.3 86.9 74.8 255.1
08/05 01:40 8.6 74 6.36 4.3 7 9 1013.1 0 15.0 23.7 33.3 86.9 74.8 255.1
08/05 01:30 8.6 74 6.36 4.3 9 9 1013.1 0 15.0 23.7 33.3 86.9 74.8 255.1
08/05 01:20 8.7 75 6.49 4.6 7 9 1013.1 0 15.3 23.9 33.7 88.2 76.4 260.7
08/05 01:10 8.7 72 6.23 3.9 6 6 1013.1 0 14.7 23.5 32.7 85.5 73.0 248.9
08/05 01:00 8.7 73 6.32 4.2 4 6 1013.1 0 14.9 23.6 33.1 86.4 74.2 253.0
08/05 00:50 8.8 71 6.18 3.9 4 6 1013.1 0 14.6 23.4 32.5 84.8 72.3 246.3
08/05 00:40 8.9 70 6.13 3.8 2 4 1013.1 0 14.5 23.3 32.2 84.2 71.6 243.8
08/05 00:30 8.9 69 6.05 3.6 4 4 1013.1 0 14.3 23.2 31.9 83.4 70.5 240.2
08/05 00:10 9 69 6.09 3.7 6 9 1013.1 0 14.4 23.2 32.0 83.7 70.9 241.7
08/05 00:00 9 68 6 3.5 4 6 1013.1 0 14.2 23.1 31.7 82.8 69.8 237.6
07/05 23:50 9 69 6.09 3.6 6 9 1013.1 0 14.4 23.2 32.0 83.7 70.9 241.7
07/05 23:40 9.1 67 5.95 3.3 9 11 1013.1 0 14.1 23.0 31.5 82.1 69.1 235.1
07/05 23:30 9.1 66 5.86 3.1 7 9 1013.1 0 13.9 22.8 31.1 81.2 67.9 231.1
07/05 23:20 9.1 67 5.95 3.3 9 13 1013.1 0 14.1 23.0 31.5 82.1 69.1 235.1
07/05 23:10 9.1 65 5.77 3 7 9 1013.1 0 13.7 22.7 30.8 80.3 66.8 227.1
07/05 23:00 9.1 65 5.77 3 7 11 1013.1 0 13.7 22.7 30.8 80.3 66.8 227.1
07/05 22:50 9.1 65 5.77 3 9 13 1013.1 0 13.7 22.7 30.8 80.3 66.8 227.1
07/05 22:40 9.1 65 5.77 3 11 13 1013.1 0 13.7 22.7 30.8 80.3 66.8 227.1
07/05 22:30 8.9 66 5.78 2.9 4 6 1013.1 0 13.8 22.7 30.9 80.6 67.1 228.1
07/05 22:20 8.9 65 5.7 2.8 4 6 1013.1 0 13.6 22.6 30.6 79.8 66.1 224.6
07/05 22:10 9 65 5.73 2.9 4 9 1013.1 0 13.7 22.6 30.7 80.0 66.4 225.6
07/05 22:00 8.9 65 5.7 2.7 7 11 1013.1 0 13.6 22.6 30.6 79.8 66.1 224.6
07/05 21:50 8.9 65 5.7 2.8 4 6 1013.1 0 13.6 22.6 30.6 79.8 66.1 224.6
07/05 21:40 9 65 5.73 2.8 7 11 1013.1 0 13.7 22.6 30.7 80.0 66.4 225.6
07/05 21:30 9 64 5.64 2.5 6 9 1013.1 0 13.5 22.5 30.3 79.1 65.2 221.7
07/05 21:20 9 64 5.64 2.5 9 15 1013.1 0 13.5 22.5 30.3 79.1 65.2 221.7
07/05 21:10 9 64 5.64 2.5 7 11 1013.1 0 13.5 22.5 30.3 79.1 65.2 221.7
07/05 21:00 9 62 5.47 2.1 7 11 1013.1 0 13.1 22.2 29.7 77.3 63.1 214.2
07/05 20:50 9 62 5.47 2.2 7 11 1013.1 0 13.1 22.2 29.7 77.3 63.1 214.2
07/05 20:40 8.9 62 5.43 2.1 9 13 1013.1 0 13.0 22.2 29.6 77.0 62.7 212.7
07/05 20:30 8.6 62 5.33 1.8 7 11 1013.1 0 12.8 22.1 29.3 76.3 61.7 209.1
07/05 20:20 8.4 65 5.52 2.3 7 11 1013.1 0 13.2 22.5 30.1 78.4 64.2 218.0
07/05 20:10 8.4 63 5.35 1.9 7 11 1013.1 0 12.9 22.2 29.4 76.7 62.1 210.5
07/05 20:00 8.3 63 5.31 1.8 7 11 1013.1 0 12.8 22.2 29.3 76.4 61.7 209.0
07/05 19:50 8.2 63 5.28 1.6 7 9 1013.1 0 12.7 22.2 29.2 76.2 61.4 208.0
07/05 19:40 8.3 62 5.23 1.4 9 11 1013.1 0 12.6 22.1 29.0 75.6 60.7 205.5
07/05 19:30 8.3 62 5.23 1.4 11 13 1013.1 0 12.6 22.1 29.0 75.6 60.7 205.5

Last Refresh: 08-May-2026 12:10:19

Bureau of Meteorology